Time;durP1;ratioP1;P1;durP2;ratioP2;P2;SDS_P1;SDS_P2;PMS_P1;PMS_P2;Temp;Humidity;BMP_temperature;BMP_pressure;BME280_temperature;BME280_humidity;BME280_pressure;Samples;Min_cycle;Max_cycle;Signal;HPM_P1;HPM_P2
2023/05/30 00:01:25;;;;;;;1999.90;999.90;;;22.90;86.60;;;;;;5082109;28;20043;-68
2023/05/30 00:03:53;;;;;;;1999.90;999.90;;;23.10;85.60;;;;;;5086055;28;21385;-69
2023/05/30 00:06:21;;;;;;;1999.90;999.90;;;23.20;85.20;;;;;;5083301;28;20032;-69
2023/05/30 00:08:48;;;;;;;1999.90;999.90;;;23.40;85.20;;;;;;5085351;28;20025;-70
2023/05/30 00:11:18;;;;;;;1999.90;999.90;;;23.60;83.80;;;;;;5088283;28;20035;-70
2023/05/30 00:13:48;;;;;;;1999.90;999.90;;;23.50;84.00;;;;;;5087239;28;20016;-69
2023/05/30 00:16:19;;;;;;;1999.90;999.90;;;23.90;83.80;;;;;;5090936;28;20485;-71
2023/05/30 00:18:47;;;;;;;1999.90;999.90;;;24.00;84.80;;;;;;5079019;28;20032;-71
2023/05/30 00:21:17;;;;;;;1999.90;999.90;;;24.80;81.80;;;;;;5095548;28;20362;-69
2023/05/30 00:23:46;;;;;;;1999.90;999.90;;;25.10;81.90;;;;;;5090842;28;20089;-68
2023/05/30 00:26:13;;;;;;;1999.90;999.90;;;25.40;80.60;;;;;;5079415;28;20028;-69
2023/05/30 00:28:41;;;;;;;1999.90;999.90;;;25.40;80.30;;;;;;5083946;28;20041;-66
2023/05/30 00:31:08;;;;;;;1999.90;999.90;;;25.60;80.10;;;;;;5095016;28;20420;-69
2023/05/30 00:33:36;;;;;;;1999.90;999.90;;;25.60;80.70;;;;;;5086040;28;20097;-68
2023/05/30 00:36:03;;;;;;;1999.90;999.90;;;25.70;79.30;;;;;;5093513;28;20110;-69
2023/05/30 00:38:30;;;;;;;1999.90;999.90;;;25.70;79.30;;;;;;5083998;28;20160;-68
2023/05/30 00:41:08;;;;;;;1999.90;999.90;;;25.80;79.30;;;;;;5089954;28;20038;-71
2023/05/30 00:43:37;;;;;;;1999.90;999.90;;;25.70;79.70;;;;;;5087010;28;20020;-67
2023/05/30 00:46:06;;;;;;;1999.90;999.90;;;25.90;80.10;;;;;;5087018;28;20027;-65
2023/05/30 00:48:34;;;;;;;1999.90;999.90;;;26.00;80.40;;;;;;5089683;28;20028;-71
2023/05/30 00:51:03;;;;;;;1999.90;999.90;;;26.30;80.40;;;;;;5084357;28;20975;-69
2023/05/30 00:53:30;;;;;;;1999.90;999.90;;;26.60;79.00;;;;;;5080174;28;20402;-67
2023/05/30 00:55:57;;;;;;;1999.90;999.90;;;27.00;76.60;;;;;;5076308;28;20439;-68
2023/05/30 00:58:25;;;;;;;1999.90;999.90;;;27.20;76.60;;;;;;5085261;28;20036;-68
2023/05/30 01:00:53;;;;;;;1999.90;999.90;;;27.30;76.80;;;;;;5089382;28;20396;-70
2023/05/30 01:03:24;;;;;;;1999.90;999.90;;;27.70;77.00;;;;;;5090616;28;20055;-69
2023/05/30 01:05:52;;;;;;;1999.90;999.90;;;28.00;75.30;;;;;;5097827;28;20420;-69
2023/05/30 01:08:19;;;;;;;1999.90;999.90;;;28.00;76.00;;;;;;5086514;28;20025;-70
2023/05/30 01:10:51;;;;;;;1999.90;999.90;;;28.10;75.50;;;;;;5086184;28;20039;-69
2023/05/30 01:13:29;;;;;;;1999.90;999.90;;;28.00;74.10;;;;;;5079405;28;20475;-68
2023/05/30 01:16:08;;;;;;;1999.90;999.90;;;28.10;75.20;;;;;;5079513;28;20068;-68
2023/05/30 01:18:47;;;;;;;1999.90;999.90;;;27.90;75.10;;;;;;5086475;28;20241;-68
2023/05/30 01:21:19;;;;;;;1999.90;999.90;;;28.00;76.10;;;;;;5085191;28;20032;-69
2023/05/30 01:24:19;;;;;;;1999.90;999.90;;;28.30;76.00;;;;;;5077172;28;20028;-68
2023/05/30 01:26:59;;;;;;;1999.90;999.90;;;28.80;73.60;;;;;;5090993;28;20024;-69
2023/05/30 01:29:28;;;;;;;1999.90;999.90;;;28.70;73.20;;;;;;5084048;28;20023;-70
2023/05/30 01:31:56;;;;;;;1999.90;999.90;;;28.40;73.30;;;;;;5090024;28;20032;-68
2023/05/30 01:34:24;;;;;;;1999.90;999.90;;;28.20;73.80;;;;;;5091331;28;20077;-69
2023/05/30 01:36:51;;;;;;;1999.90;999.90;;;28.30;75.30;;;;;;5092770;28;20071;-70
2023/05/30 01:39:19;;;;;;;1999.90;999.90;;;28.80;73.40;;;;;;5092658;28;20087;-68
2023/05/30 01:42:12;;;;;;;1999.90;999.90;;;28.90;73.00;;;;;;5096155;28;20051;-67
2023/05/30 01:45:04;;;;;;;1999.90;999.90;;;28.90;74.40;;;;;;5086399;28;20435;-69
2023/05/30 01:47:44;;;;;;;1999.90;999.90;;;29.10;74.00;;;;;;5088064;28;20367;-72
2023/05/30 01:50:16;;;;;;;1999.90;999.90;;;29.10;72.70;;;;;;5088963;28;20107;-72
2023/05/30 01:52:52;;;;;;;1999.90;999.90;;;29.00;72.90;;;;;;5088002;28;20031;-72
2023/05/30 01:55:22;;;;;;;1999.90;999.90;;;29.00;73.70;;;;;;5093605;28;20026;-70
2023/05/30 01:57:50;;;;;;;1999.90;999.90;;;29.10;73.60;;;;;;5094680;28;20032;-71
2023/05/30 02:00:18;;;;;;;1999.90;999.90;;;29.30;74.00;;;;;;5097739;28;20040;-70
2023/05/30 02:02:47;;;;;;;1999.90;999.90;;;29.30;73.10;;;;;;5102199;28;20052;-69
2023/05/30 02:05:14;;;;;;;1999.90;999.90;;;29.30;73.10;;;;;;5093577;28;20038;-71
2023/05/30 02:07:42;;;;;;;1999.90;999.90;;;29.40;72.10;;;;;;5091130;28;20055;-69
2023/05/30 02:10:10;;;;;;;1999.90;999.90;;;29.10;73.20;;;;;;5090526;28;20036;-67
2023/05/30 02:12:37;;;;;;;1999.90;999.90;;;29.10;73.90;;;;;;5092130;28;20043;-70
2023/05/30 02:15:05;;;;;;;1999.90;999.90;;;29.30;73.10;;;;;;5093227;28;20035;-69
2023/05/30 02:17:32;;;;;;;1999.90;999.90;;;29.30;73.50;;;;;;5089235;28;20052;-69
2023/05/30 02:19:59;;;;;;;1999.90;999.90;;;29.20;72.90;;;;;;5087786;28;20078;-70
2023/05/30 02:22:27;;;;;;;1999.90;999.90;;;28.90;72.60;;;;;;5087604;28;20061;-68
2023/05/30 02:24:55;;;;;;;1999.90;999.90;;;28.70;74.20;;;;;;5087893;28;20023;-70
2023/05/30 02:27:24;;;;;;;1999.90;999.90;;;28.60;73.80;;;;;;5087834;28;20024;-70
2023/05/30 02:29:52;;;;;;;1999.90;999.90;;;28.70;74.90;;;;;;5086182;28;20354;-70
2023/05/30 02:32:19;;;;;;;1999.90;999.90;;;28.50;73.80;;;;;;5093597;28;20024;-71
2023/05/30 02:34:47;;;;;;;1999.90;999.90;;;28.60;74.30;;;;;;5076165;28;20028;-68
2023/05/30 02:37:14;;;;;;;1999.90;999.90;;;28.40;73.60;;;;;;5090843;28;20036;-70
2023/05/30 02:39:41;;;;;;;1999.90;999.90;;;28.20;74.50;;;;;;5090081;28;20035;-70
2023/05/30 02:42:09;;;;;;;1999.90;999.90;;;27.80;74.30;;;;;;5088333;28;20028;-69
2023/05/30 02:44:36;;;;;;;1999.90;999.90;;;26.70;74.60;;;;;;5091717;28;20098;-70
2023/05/30 02:47:03;;;;;;;1999.90;999.90;;;26.40;76.40;;;;;;5086629;28;20035;-69
2023/05/30 02:49:31;;;;;;;1999.90;999.90;;;26.30;77.40;;;;;;5084329;28;20032;-70
2023/05/30 02:51:58;;;;;;;1999.90;999.90;;;26.50;77.30;;;;;;5084207;28;20032;-69
2023/05/30 02:54:26;;;;;;;1999.90;999.90;;;26.30;76.60;;;;;;5087453;28;20024;-70
2023/05/30 02:56:53;;;;;;;1999.90;999.90;;;26.30;77.60;;;;;;5087811;28;20024;-71
2023/05/30 02:59:20;;;;;;;1999.90;999.90;;;26.40;76.90;;;;;;5083011;28;20417;-70
2023/05/30 03:01:48;;;;;;;1999.90;999.90;;;26.40;77.60;;;;;;5096313;28;20085;-69
2023/05/30 03:04:16;;;;;;;1999.90;999.90;;;26.30;77.00;;;;;;5087586;28;20043;-70
2023/05/30 03:06:44;;;;;;;1999.90;999.90;;;26.20;77.50;;;;;;5088830;28;20424;-70
2023/05/30 03:09:11;;;;;;;1999.90;999.90;;;26.10;77.40;;;;;;5067440;28;20371;-72
2023/05/30 03:11:38;;;;;;;1999.90;999.90;;;26.10;77.40;;;;;;5084599;28;20023;-71
2023/05/30 03:14:06;;;;;;;1999.90;999.90;;;25.70;77.00;;;;;;5088576;28;20024;-71
2023/05/30 03:16:33;;;;;;;1999.90;999.90;;;25.40;77.40;;;;;;5090762;28;20043;-70
2023/05/30 03:19:01;;;;;;;1999.90;999.90;;;24.90;78.80;;;;;;5081186;28;20036;-70
2023/05/30 03:21:29;;;;;;;1999.90;999.90;;;24.80;79.20;;;;;;5087277;28;20029;-71
2023/05/30 03:23:56;;;;;;;1999.90;999.90;;;24.60;79.50;;;;;;5081604;28;20418;-71
2023/05/30 03:26:24;;;;;;;1999.90;999.90;;;24.20;79.80;;;;;;5089301;28;20122;-70
2023/05/30 03:28:51;;;;;;;1999.90;999.90;;;23.70;80.80;;;;;;5083040;28;20050;-70
2023/05/30 03:31:20;;;;;;;1999.90;999.90;;;23.40;81.50;;;;;;5087679;28;20040;-69
2023/05/30 03:33:47;;;;;;;1999.90;999.90;;;23.30;82.10;;;;;;5087989;28;20059;-68
2023/05/30 03:36:15;;;;;;;1999.90;999.90;;;23.10;82.00;;;;;;5085209;28;20032;-68
2023/05/30 03:38:43;;;;;;;1999.90;999.90;;;22.80;82.50;;;;;;5084578;28;20035;-68
2023/05/30 03:41:10;;;;;;;1999.90;999.90;;;22.50;82.90;;;;;;5095492;28;20497;-69
2023/05/30 03:43:37;;;;;;;1999.90;999.90;;;22.30;83.70;;;;;;5100355;28;20088;-69
2023/05/30 03:46:05;;;;;;;1999.90;999.90;;;22.20;83.80;;;;;;5077490;28;20043;-70
2023/05/30 03:48:32;;;;;;;1999.90;999.90;;;21.90;84.60;;;;;;5090069;28;20027;-70
2023/05/30 03:50:59;;;;;;;1999.90;999.90;;;21.70;84.90;;;;;;5091282;28;20043;-69
2023/05/30 03:53:27;;;;;;;1999.90;999.90;;;21.70;84.90;;;;;;5099547;28;20032;-69
2023/05/30 03:55:54;;;;;;;1999.90;999.90;;;21.70;85.00;;;;;;5087410;28;20031;-69
2023/05/30 03:58:21;;;;;;;1999.90;999.90;;;21.70;84.90;;;;;;5095809;28;20039;-69
2023/05/30 04:00:49;;;;;;;1999.90;999.90;;;21.70;85.10;;;;;;5076515;28;20031;-70
2023/05/30 04:03:19;;;;;;;1999.90;999.90;;;21.70;85.60;;;;;;5089983;28;20493;-70
2023/05/30 04:05:50;;;;;;;1999.90;999.90;;;21.80;85.40;;;;;;5093206;28;20040;-70
2023/05/30 04:08:17;;;;;;;1999.90;999.90;;;22.00;85.60;;;;;;5093695;28;20031;-71
2023/05/30 04:10:45;;;;;;;1999.90;999.90;;;22.10;85.50;;;;;;5093407;28;20085;-71
2023/05/30 04:13:13;;;;;;;1999.90;999.90;;;22.20;85.10;;;;;;5094459;28;20035;-71
2023/05/30 04:15:40;;;;;;;1999.90;999.90;;;22.10;84.80;;;;;;5089444;28;20031;-69
2023/05/30 04:18:07;;;;;;;1999.90;999.90;;;22.10;85.00;;;;;;5094438;28;20040;-69
2023/05/30 04:20:35;;;;;;;1999.90;999.90;;;22.00;84.80;;;;;;5094643;28;20124;-73
2023/05/30 04:23:02;;;;;;;1999.90;999.90;;;21.90;85.50;;;;;;5091021;28;20024;-71
2023/05/30 04:25:30;;;;;;;1999.90;999.90;;;21.80;85.00;;;;;;5091071;28;20051;-70
2023/05/30 04:27:58;;;;;;;1999.90;999.90;;;21.70;85.40;;;;;;5083525;28;20036;-71
2023/05/30 04:30:26;;;;;;;1999.90;999.90;;;21.60;86.00;;;;;;5089457;28;20036;-70
2023/05/30 04:32:55;;;;;;;1999.90;999.90;;;21.50;86.50;;;;;;5084873;28;20070;-72
2023/05/30 04:35:23;;;;;;;1999.90;999.90;;;21.30;86.60;;;;;;5090646;28;20470;-70
2023/05/30 04:37:53;;;;;;;1999.90;999.90;;;21.40;86.90;;;;;;5088742;28;20043;-70
2023/05/30 04:40:20;;;;;;;1999.90;999.90;;;21.30;87.20;;;;;;5064551;28;20072;-69
2023/05/30 04:42:51;;;;;;;1999.90;999.90;;;21.30;85.40;;;;;;5091318;28;20486;-70
2023/05/30 04:45:19;;;;;;;1999.90;999.90;;;21.30;85.10;;;;;;5090738;28;20040;-69
2023/05/30 04:47:46;;;;;;;1999.90;999.90;;;21.20;85.50;;;;;;5067947;28;20473;-69
2023/05/30 04:50:17;;;;;;;1999.90;999.90;;;21.20;86.10;;;;;;5078894;28;20039;-69
2023/05/30 04:52:45;;;;;;;1999.90;999.90;;;21.20;86.70;;;;;;5088991;28;20038;-71
2023/05/30 04:55:13;;;;;;;1999.90;999.90;;;21.20;87.60;;;;;;5093085;28;20032;-70
2023/05/30 04:57:43;;;;;;;1999.90;999.90;;;21.20;86.70;;;;;;5091848;28;20051;-70
2023/05/30 05:00:13;;;;;;;1999.90;999.90;;;21.10;87.20;;;;;;5100519;28;20043;-70
2023/05/30 05:02:44;;;;;;;1999.90;999.90;;;21.10;87.00;;;;;;5091459;28;20135;-72
2023/05/30 05:05:12;;;;;;;1999.90;999.90;;;21.10;86.70;;;;;;5086326;28;20029;-70
2023/05/30 05:07:39;;;;;;;1999.90;999.90;;;21.00;86.90;;;;;;5088975;28;20417;-71
2023/05/30 05:10:07;;;;;;;1999.90;999.90;;;21.00;87.70;;;;;;5088131;28;20024;-70
2023/05/30 05:12:34;;;;;;;1999.90;999.90;;;20.90;87.70;;;;;;5097528;28;20057;-69
2023/05/30 05:15:01;;;;;;;1999.90;999.90;;;20.90;88.20;;;;;;5083009;28;20107;-71
2023/05/30 05:17:29;;;;;;;1999.90;999.90;;;20.90;88.30;;;;;;5094925;28;20032;-69
2023/05/30 05:19:56;;;;;;;1999.90;999.90;;;20.90;88.60;;;;;;5097042;28;20508;-70
2023/05/30 05:22:24;;;;;;;1999.90;999.90;;;20.90;88.50;;;;;;5093174;28;20119;-69
2023/05/30 05:24:51;;;;;;;1999.90;999.90;;;20.80;88.70;;;;;;5088334;28;20081;-70
2023/05/30 05:27:18;;;;;;;1999.90;999.90;;;20.80;89.00;;;;;;5087932;28;20111;-70
2023/05/30 05:29:47;;;;;;;1999.90;999.90;;;20.70;89.10;;;;;;5095588;28;20459;-69
2023/05/30 05:32:15;;;;;;;1999.90;999.90;;;20.60;89.30;;;;;;5082488;28;20028;-69
2023/05/30 05:34:42;;;;;;;1999.90;999.90;;;20.60;89.40;;;;;;5094704;28;20357;-69
2023/05/30 05:37:10;;;;;;;1999.90;999.90;;;20.60;89.50;;;;;;5097045;28;20422;-69
2023/05/30 05:39:37;;;;;;;1999.90;999.90;;;20.60;89.70;;;;;;5089960;28;20127;-71
2023/05/30 05:42:06;;;;;;;1999.90;999.90;;;20.60;89.60;;;;;;5089792;28;20036;-71
2023/05/30 05:44:34;;;;;;;1999.90;999.90;;;20.60;89.20;;;;;;5088607;28;20027;-70
2023/05/30 05:47:02;;;;;;;1999.90;999.90;;;20.60;89.30;;;;;;5097357;28;20106;-71
2023/05/30 05:49:29;;;;;;;1999.90;999.90;;;20.50;89.20;;;;;;5087557;28;20020;-70
2023/05/30 05:51:56;;;;;;;1999.90;999.90;;;20.60;89.40;;;;;;5096640;28;20028;-70
2023/05/30 05:54:24;;;;;;;1999.90;999.90;;;20.60;89.40;;;;;;5091139;28;20037;-72
2023/05/30 05:56:51;;;;;;;1999.90;999.90;;;20.50;89.80;;;;;;5092646;28;20073;-69
2023/05/30 05:59:19;;;;;;;1999.90;999.90;;;20.50;90.00;;;;;;5090095;28;20035;-71
2023/05/30 06:01:46;;;;;;;1999.90;999.90;;;20.40;89.80;;;;;;5094993;28;20121;-70
2023/05/30 06:04:13;;;;;;;1999.90;999.90;;;20.40;90.00;;;;;;5097793;28;20052;-71
2023/05/30 06:06:41;;;;;;;1999.90;999.90;;;20.30;90.00;;;;;;5095086;28;21927;-70
2023/05/30 06:09:08;;;;;;;1999.90;999.90;;;20.20;90.20;;;;;;5094759;28;20031;-70
2023/05/30 06:11:35;;;;;;;1999.90;999.90;;;20.10;90.20;;;;;;5095267;28;20424;-70
2023/05/30 06:14:03;;;;;;;1999.90;999.90;;;20.00;90.30;;;;;;5091288;28;20165;-72
2023/05/30 06:16:30;;;;;;;1999.90;999.90;;;19.90;90.30;;;;;;5096998;28;20482;-69
2023/05/30 06:18:57;;;;;;;1999.90;999.90;;;19.80;90.40;;;;;;5071375;28;20028;-72
2023/05/30 06:21:24;;;;;;;1999.90;999.90;;;19.70;90.50;;;;;;5093636;28;20435;-69
2023/05/30 06:23:52;;;;;;;1999.90;999.90;;;19.60;90.60;;;;;;5094713;28;20023;-69
2023/05/30 06:26:26;;;;;;;1999.90;999.90;;;19.50;90.80;;;;;;5092854;28;20189;-70
2023/05/30 06:28:53;;;;;;;1999.90;999.90;;;19.40;90.90;;;;;;5104323;28;20021;-70
2023/05/30 06:31:20;;;;;;;1999.90;999.90;;;19.30;91.20;;;;;;5092953;28;20114;-71
2023/05/30 06:33:48;;;;;;;1999.90;999.90;;;19.20;91.10;;;;;;5097251;28;20485;-70
2023/05/30 06:36:15;;;;;;;1999.90;999.90;;;19.20;91.20;;;;;;5108711;28;20032;-69
2023/05/30 06:38:42;;;;;;;1999.90;999.90;;;19.10;91.40;;;;;;5098285;28;20032;-70
2023/05/30 06:41:10;;;;;;;1999.90;999.90;;;19.00;91.50;;;;;;5087263;28;20036;-69
2023/05/30 06:43:37;;;;;;;1999.90;999.90;;;18.80;91.70;;;;;;5087800;28;20020;-69
2023/05/30 06:46:05;;;;;;;1999.90;999.90;;;18.70;92.00;;;;;;5091001;28;20035;-71
2023/05/30 06:48:35;;;;;;;1999.90;999.90;;;18.50;92.20;;;;;;5080541;28;20114;-70
2023/05/30 06:51:03;;;;;;;1999.90;999.90;;;18.40;92.40;;;;;;5084104;28;20020;-70
2023/05/30 06:53:30;;;;;;;1999.90;999.90;;;18.30;92.60;;;;;;5082567;28;20081;-69
2023/05/30 06:55:57;;;;;;;1999.90;999.90;;;18.30;92.70;;;;;;5091062;28;20032;-71
2023/05/30 06:58:25;;;;;;;1999.90;999.90;;;18.20;92.90;;;;;;5090013;28;20115;-71
2023/05/30 07:00:53;;;;;;;1999.90;999.90;;;18.10;93.10;;;;;;5088713;28;20036;-71
2023/05/30 07:03:20;;;;;;;1999.90;999.90;;;18.10;93.20;;;;;;5081221;28;20905;-72
2023/05/30 07:05:47;;;;;;;1999.90;999.90;;;17.90;93.40;;;;;;5085737;28;20032;-69
2023/05/30 07:08:15;;;;;;;1999.90;999.90;;;17.90;93.50;;;;;;5092361;28;20027;-70
2023/05/30 07:10:42;;;;;;;1999.90;999.90;;;17.90;93.60;;;;;;5084562;28;20118;-71
2023/05/30 07:13:10;;;;;;;1999.90;999.90;;;17.90;93.70;;;;;;5076744;28;20032;-70
2023/05/30 07:15:37;;;;;;;1999.90;999.90;;;17.80;93.70;;;;;;5086199;28;20085;-72
2023/05/30 07:18:05;;;;;;;1999.90;999.90;;;17.80;93.80;;;;;;5090479;28;20047;-70
2023/05/30 07:20:32;;;;;;;1999.90;999.90;;;17.60;93.90;;;;;;5094871;28;20119;-69
2023/05/30 07:23:00;;;;;;;1999.90;999.90;;;17.50;94.20;;;;;;5085677;28;20024;-70
2023/05/30 07:25:27;;;;;;;1999.90;999.90;;;17.30;94.40;;;;;;5084971;28;20062;-71
2023/05/30 07:27:55;;;;;;;1999.90;999.90;;;17.10;94.70;;;;;;5092303;28;20479;-71
2023/05/30 07:30:22;;;;;;;1999.90;999.90;;;17.00;95.00;;;;;;5083772;28;20082;-69
2023/05/30 07:32:50;;;;;;;1999.90;999.90;;;16.90;95.20;;;;;;5093304;28;20366;-68
2023/05/30 07:35:18;;;;;;;1999.90;999.90;;;16.80;95.50;;;;;;5095964;28;20032;-69
2023/05/30 07:37:45;;;;;;;1999.90;999.90;;;16.70;95.70;;;;;;5089631;28;20025;-69
2023/05/30 07:40:17;;;;;;;1999.90;999.90;;;16.60;96.00;;;;;;5088768;28;20047;-70
2023/05/30 07:42:47;;;;;;;1999.90;999.90;;;16.50;96.50;;;;;;5089903;28;20028;-71
2023/05/30 07:45:19;;;;;;;1999.90;999.90;;;16.40;96.70;;;;;;5087165;28;20433;-70
2023/05/30 07:47:46;;;;;;;1999.90;999.90;;;16.30;96.80;;;;;;5092603;28;20032;-69
2023/05/30 07:50:14;;;;;;;1999.90;999.90;;;16.20;97.10;;;;;;5085522;28;20418;-70
2023/05/30 07:52:42;;;;;;;1999.90;999.90;;;16.10;97.20;;;;;;5093199;28;20039;-70
2023/05/30 07:55:09;;;;;;;1999.90;999.90;;;16.10;97.40;;;;;;5086804;28;20020;-70
2023/05/30 07:57:36;;;;;;;1999.90;999.90;;;16.10;97.60;;;;;;5087787;28;20020;-71
2023/05/30 08:00:08;;;;;;;1999.90;999.90;;;16.10;97.70;;;;;;5085049;28;20490;-70
2023/05/30 08:02:40;;;;;;;1999.90;999.90;;;16.10;97.80;;;;;;5079871;28;20422;-70
2023/05/30 08:05:08;;;;;;;1999.90;999.90;;;16.00;97.90;;;;;;5084994;28;20020;-70
2023/05/30 08:07:35;;;;;;;1999.90;999.90;;;16.00;98.00;;;;;;5109424;28;20023;-69
2023/05/30 08:10:02;;;;;;;1999.90;999.90;;;16.00;98.00;;;;;;5082543;28;20069;-69
2023/05/30 08:12:30;;;;;;;1999.90;999.90;;;16.00;98.00;;;;;;5088634;28;20423;-72
2023/05/30 08:14:58;;;;;;;1999.90;999.90;;;16.00;98.00;;;;;;5083890;28;20036;-72
2023/05/30 08:17:29;;;;;;;1999.90;999.90;;;16.00;98.10;;;;;;5082850;28;20044;-71
2023/05/30 08:19:57;;;;;;;1999.90;999.90;;;16.00;98.00;;;;;;5091101;28;20074;-70
2023/05/30 08:22:24;;;;;;;1999.90;999.90;;;16.00;98.10;;;;;;5085373;28;20072;-70
2023/05/30 08:24:59;;;;;;;1999.90;999.90;;;16.00;98.00;;;;;;5090794;28;20073;-73
2023/05/30 08:27:27;;;;;;;1999.90;999.90;;;16.00;97.90;;;;;;5096147;28;20094;-68
2023/05/30 08:29:56;;;;;;;1999.90;999.90;;;15.90;98.00;;;;;;5086795;28;20032;-72
2023/05/30 08:32:23;;;;;;;1999.90;999.90;;;15.80;98.10;;;;;;5092177;28;20023;-70
2023/05/30 08:34:51;;;;;;;1999.90;999.90;;;15.80;98.20;;;;;;5085673;28;20082;-70
2023/05/30 08:37:19;;;;;;;1999.90;999.90;;;15.80;98.20;;;;;;5071607;28;20032;-70
2023/05/30 08:39:46;;;;;;;1999.90;999.90;;;15.70;98.20;;;;;;5088873;28;20115;-70
2023/05/30 08:42:14;;;;;;;1999.90;999.90;;;15.60;98.30;;;;;;5090788;28;20012;-69
2023/05/30 08:44:41;;;;;;;1999.90;999.90;;;15.60;98.40;;;;;;5088464;28;20509;-72
2023/05/30 08:47:12;;;;;;;1999.90;999.90;;;15.60;98.60;;;;;;5092000;28;20019;-70
2023/05/30 08:49:42;;;;;;;1999.90;999.90;;;15.50;98.60;;;;;;5081360;28;20594;-70
2023/05/30 08:52:13;;;;;;;1999.90;999.90;;;15.50;98.90;;;;;;5080213;28;20047;-69
2023/05/30 08:55:09;;;;;;;1999.90;999.90;;;15.50;98.70;;;;;;5084976;28;20040;-70
2023/05/30 08:58:11;;;;;;;1999.90;999.90;;;15.50;98.60;;;;;;5080096;28;20119;-70
2023/05/30 09:00:39;;;;;;;1999.90;999.90;;;15.50;98.70;;;;;;5081209;28;20040;-68
2023/05/30 09:03:07;;;;;;;1999.90;999.90;;;15.50;98.70;;;;;;5083064;28;22232;-69
2023/05/30 09:05:39;;;;;;;1999.90;999.90;;;15.50;98.60;;;;;;5083446;28;20136;-71
2023/05/30 09:08:08;;;;;;;1999.90;999.90;;;15.40;98.70;;;;;;5093672;28;20055;-69
2023/05/30 09:10:36;;;;;;;1999.90;999.90;;;15.40;98.80;;;;;;5079876;28;20024;-70
2023/05/30 09:13:04;;;;;;;1999.90;999.90;;;15.40;98.70;;;;;;5083459;28;20063;-71
2023/05/30 09:15:31;;;;;;;1999.90;999.90;;;15.30;98.70;;;;;;5081031;28;20020;-70
2023/05/30 09:17:59;;;;;;;1999.90;999.90;;;15.30;98.80;;;;;;5083154;28;20028;-69
2023/05/30 09:20:30;;;;;;;1999.90;999.90;;;15.30;98.80;;;;;;5073172;28;20033;-70
2023/05/30 09:22:58;;;;;;;1999.90;999.90;;;15.30;98.80;;;;;;5083078;28;20024;-70
2023/05/30 09:25:40;;;;;;;1999.90;999.90;;;15.30;98.80;;;;;;5078667;28;20025;-68
2023/05/30 09:28:07;;;;;;;1999.90;999.90;;;15.30;98.80;;;;;;5067741;28;20028;-69
2023/05/30 09:30:34;;;;;;;1999.90;999.90;;;15.20;98.80;;;;;;5083212;28;20023;-69
2023/05/30 09:33:02;;;;;;;1999.90;999.90;;;15.20;98.90;;;;;;5087053;28;20035;-69
2023/05/30 09:35:30;;;;;;;1999.90;999.90;;;15.00;99.10;;;;;;5079581;28;20489;-70
2023/05/30 09:38:03;;;;;;;1999.90;999.90;;;15.00;99.30;;;;;;5082868;28;20071;-69
2023/05/30 09:40:31;;;;;;;1999.90;999.90;;;14.90;99.40;;;;;;5080771;28;20067;-69
2023/05/30 09:42:58;;;;;;;1999.90;999.90;;;14.80;99.90;;;;;;5079599;28;20159;-69
2023/05/30 09:45:26;;;;;;;1999.90;999.90;;;14.60;99.80;;;;;;5087461;28;20036;-68
2023/05/30 09:47:53;;;;;;;1999.90;999.90;;;14.60;99.90;;;;;;5077873;28;20040;-69
2023/05/30 09:50:23;;;;;;;1999.90;999.90;;;14.40;99.90;;;;;;5079289;28;20028;-69
2023/05/30 09:52:56;;;;;;;1999.90;999.90;;;14.40;99.90;;;;;;5084781;28;20031;-69
2023/05/30 09:55:26;;;;;;;1999.90;999.90;;;14.30;99.90;;;;;;5084483;28;20138;-71
2023/05/30 09:57:54;;;;;;;1999.90;999.90;;;14.10;99.90;;;;;;5093312;28;20828;-71
2023/05/30 10:00:29;;;;;;;1999.90;999.90;;;14.00;99.90;;;;;;5084977;28;20126;-69
2023/05/30 10:02:59;;;;;;;1999.90;999.90;;;13.90;99.90;;;;;;5086497;28;20039;-70
2023/05/30 10:05:28;;;;;;;1999.90;999.90;;;13.80;99.90;;;;;;5073531;28;20032;-68
2023/05/30 10:07:57;;;;;;;1999.90;999.90;;;13.70;99.90;;;;;;5079449;28;20059;-69
2023/05/30 10:10:26;;;;;;;1999.90;999.90;;;13.50;99.90;;;;;;5081092;28;20019;-69
2023/05/30 10:12:57;;;;;;;1999.90;999.90;;;13.50;99.90;;;;;;5088530;28;20039;-71
2023/05/30 10:15:25;;;;;;;1999.90;999.90;;;13.40;99.90;;;;;;5082546;28;20458;-69
2023/05/30 10:18:16;;;;;;;1999.90;999.90;;;13.30;99.90;;;;;;5093681;28;20042;-69
2023/05/30 10:20:45;;;;;;;1999.90;999.90;;;13.20;99.90;;;;;;5089174;28;20484;-70
2023/05/30 10:23:16;;;;;;;1999.90;999.90;;;13.20;99.90;;;;;;5090796;28;20029;-69
2023/05/30 10:25:57;;;;;;;1999.90;999.90;;;13.20;99.90;;;;;;5079203;28;20095;-67
2023/05/30 10:28:28;;;;;;;1999.90;999.90;;;13.10;99.90;;;;;;5089280;28;20055;-70
2023/05/30 10:30:57;;;;;;;1999.90;999.90;;;13.10;99.90;;;;;;5103396;28;20028;-69
2023/05/30 10:33:28;;;;;;;1999.90;999.90;;;13.10;99.90;;;;;;5094577;28;20173;-69
2023/05/30 10:35:55;;;;;;;1999.90;999.90;;;13.20;99.90;;;;;;5094102;28;20158;-70
2023/05/30 10:38:26;;;;;;;1999.90;999.90;;;13.20;99.90;;;;;;5092099;28;20059;-70
2023/05/30 10:41:02;;;;;;;1999.90;999.90;;;13.20;99.90;;;;;;5099221;28;20032;-69
2023/05/30 10:44:17;;;;;;;1999.90;999.90;;;13.30;99.90;;;;;;5091265;28;20020;-69
2023/05/30 10:46:54;;;;;;;1999.90;999.90;;;13.30;99.90;;;;;;5092806;28;20056;-69
2023/05/30 10:49:27;;;;;;;1999.90;999.90;;;13.30;99.90;;;;;;5086079;28;20475;-69
2023/05/30 10:52:03;;;;;;;1999.90;999.90;;;13.30;99.90;;;;;;5091509;28;20639;-68
2023/05/30 10:54:33;;;;;;;1999.90;999.90;;;13.20;99.90;;;;;;5088161;28;20028;-68
2023/05/30 10:57:31;;;;;;;1999.90;999.90;;;13.20;99.90;;;;;;5085547;28;20043;-70
2023/05/30 11:00:09;;;;;;;1999.90;999.90;;;13.20;99.90;;;;;;5079950;28;20158;-69
2023/05/30 11:02:38;;;;;;;1999.90;999.90;;;13.10;99.90;;;;;;5089515;28;20081;-69
2023/05/30 11:05:10;;;;;;;1999.90;999.90;;;13.00;99.90;;;;;;5070583;28;20115;-70
2023/05/30 11:07:47;;;;;;;1999.90;999.90;;;12.80;99.90;;;;;;5087914;28;20391;-69
2023/05/30 11:10:23;;;;;;;1999.90;999.90;;;12.70;99.90;;;;;;5085767;28;20561;-72
2023/05/30 11:12:52;;;;;;;1999.90;999.90;;;12.60;99.90;;;;;;5090844;28;20032;-69
2023/05/30 11:15:35;;;;;;;1999.90;999.90;;;12.50;99.90;;;;;;5082268;28;20044;-69
2023/05/30 11:18:14;;;;;;;1999.90;999.90;;;12.40;99.90;;;;;;5091602;28;20020;-68
2023/05/30 11:21:10;;;;;;;1999.90;999.90;;;12.40;99.90;;;;;;5081929;28;20040;-69
2023/05/30 11:24:00;;;;;;;1999.90;999.90;;;12.30;99.90;;;;;;5068152;28;20024;-68
2023/05/30 11:26:58;;;;;;;1999.90;999.90;;;12.30;99.90;;;;;;5078668;28;20135;-68
2023/05/30 11:29:39;;;;;;;1999.90;999.90;;;12.30;99.90;;;;;;5085400;28;20089;-69
2023/05/30 11:32:07;;;;;;;1999.90;999.90;;;12.30;99.90;;;;;;5071306;28;20054;-68
2023/05/30 11:34:38;;;;;;;1999.90;999.90;;;12.20;99.90;;;;;;5085458;28;20370;-68
2023/05/30 11:37:08;;;;;;;1999.90;999.90;;;12.10;99.90;;;;;;5085771;28;20025;-68
2023/05/30 11:39:36;;;;;;;1999.90;999.90;;;12.00;99.90;;;;;;5084552;28;20034;-68
2023/05/30 11:42:05;;;;;;;1999.90;999.90;;;11.90;99.90;;;;;;5088256;28;20416;-68
2023/05/30 11:44:33;;;;;;;1999.90;999.90;;;11.80;99.90;;;;;;5082464;28;20078;-68
2023/05/30 11:47:11;;;;;;;1999.90;999.90;;;11.70;99.90;;;;;;5092998;28;20389;-69
2023/05/30 11:49:38;;;;;;;1999.90;999.90;;;11.60;99.90;;;;;;5081531;28;20077;-68
2023/05/30 11:52:07;;;;;;;1999.90;999.90;;;11.50;99.90;;;;;;5095155;28;20051;-69
2023/05/30 11:54:35;;;;;;;1999.90;999.90;;;11.40;99.90;;;;;;5085688;28;20035;-68
2023/05/30 11:57:03;;;;;;;1999.90;999.90;;;11.40;99.90;;;;;;5093197;28;20031;-69
2023/05/30 11:59:30;;;;;;;1999.90;999.90;;;11.30;99.90;;;;;;5094112;28;20068;-69
2023/05/30 12:02:01;;;;;;;1999.90;999.90;;;11.30;99.90;;;;;;5083434;28;20042;-68
2023/05/30 12:04:32;;;;;;;1999.90;999.90;;;11.30;99.90;;;;;;5085648;28;20153;-71
2023/05/30 12:07:03;;;;;;;1999.90;999.90;;;11.30;99.90;;;;;;5092485;28;20024;-69
2023/05/30 12:09:39;;;;;;;1999.90;999.90;;;11.30;99.90;;;;;;5089111;28;20111;-70
2023/05/30 12:12:08;;;;;;;1999.90;999.90;;;11.20;99.90;;;;;;5087585;28;20024;-70